Time;durP1;ratioP1;P1;durP2;ratioP2;P2;SDS_P1;SDS_P2;PMS_P1;PMS_P2;Temp;Humidity;BMP_temperature;BMP_pressure;BME280_temperature;BME280_humidity;BME280_pressure;Samples;Min_cycle;Max_cycle;Signal;HPM_P1;HPM_P2
2021/08/18 00:00:40;;;;;;;3.53;3.22;;;20.70;57.80;;;;;;5034960;28;20052;-83
2021/08/18 00:03:06;;;;;;;2.83;2.72;;;20.60;57.80;;;;;;5053224;28;20458;-83
2021/08/18 00:05:32;;;;;;;2.72;2.63;;;20.60;57.80;;;;;;5056743;28;20033;-83
2021/08/18 00:08:00;;;;;;;3.05;2.90;;;20.60;57.80;;;;;;5055172;28;20048;-83
2021/08/18 00:10:26;;;;;;;3.20;3.10;;;20.60;57.90;;;;;;5056192;28;20051;-85
2021/08/18 00:12:53;;;;;;;3.88;3.10;;;20.60;57.90;;;;;;5055702;28;20039;-84
2021/08/18 00:15:19;;;;;;;3.20;3.10;;;20.60;58.00;;;;;;5050149;28;20390;-84
2021/08/18 00:17:45;;;;;;;2.90;2.80;;;20.60;58.00;;;;;;5056531;28;20045;-83
2021/08/18 00:20:11;;;;;;;3.00;2.80;;;20.50;58.00;;;;;;5054747;28;20045;-83
2021/08/18 00:22:38;;;;;;;3.03;2.88;;;20.60;58.10;;;;;;5055975;28;20033;-83
2021/08/18 00:25:04;;;;;;;3.15;3.05;;;20.60;58.20;;;;;;5055984;28;20393;-84
2021/08/18 00:27:30;;;;;;;3.10;3.00;;;20.50;58.20;;;;;;5053019;28;20028;-83
2021/08/18 00:29:56;;;;;;;2.90;2.80;;;20.50;58.30;;;;;;5054811;28;20021;-84
2021/08/18 00:32:23;;;;;;;3.55;3.25;;;20.50;58.30;;;;;;5064979;28;20028;-84
2021/08/18 00:34:49;;;;;;;2.65;2.55;;;20.50;58.30;;;;;;5055959;28;20045;-83
2021/08/18 00:37:15;;;;;;;3.10;3.00;;;20.50;58.30;;;;;;5054172;28;20412;-83
2021/08/18 00:39:41;;;;;;;2.70;2.60;;;20.50;58.40;;;;;;5053169;28;20032;-83
2021/08/18 00:42:07;;;;;;;3.00;2.80;;;20.40;58.40;;;;;;5050837;28;20041;-83
2021/08/18 00:44:37;;;;;;;3.00;2.90;;;20.40;58.40;;;;;;5056236;28;20025;-83
2021/08/18 00:47:04;;;;;;;2.55;2.45;;;20.40;58.50;;;;;;5053705;28;20052;-85
2021/08/18 00:49:31;;;;;;;3.00;2.80;;;20.40;58.50;;;;;;5055280;28;20029;-83
2021/08/18 00:51:58;;;;;;;2.90;2.80;;;20.40;58.50;;;;;;5054191;28;20029;-84
2021/08/18 00:54:24;;;;;;;3.10;2.90;;;20.40;58.60;;;;;;5052077;28;20482;-83
2021/08/18 00:56:51;;;;;;;2.92;2.53;;;20.30;58.60;;;;;;5055334;28;20059;-83
2021/08/18 00:59:17;;;;;;;2.90;2.80;;;20.40;58.60;;;;;;5054655;28;20029;-83
2021/08/18 01:01:43;;;;;;;2.90;2.80;;;20.40;58.60;;;;;;5054840;28;20405;-84
2021/08/18 01:04:09;;;;;;;2.90;2.80;;;20.40;58.70;;;;;;5053567;28;20035;-83
2021/08/18 01:06:40;;;;;;;3.10;3.00;;;20.40;58.70;;;;;;5051800;28;20092;-83
2021/08/18 01:09:08;;;;;;;3.40;3.20;;;20.40;58.70;;;;;;5051386;28;20044;-84
2021/08/18 01:11:41;;;;;;;3.03;2.92;;;20.30;58.70;;;;;;5056671;28;20028;-84
2021/08/18 01:14:07;;;;;;;2.92;2.72;;;20.30;58.70;;;;;;5052340;28;20033;-85
2021/08/18 01:16:44;;;;;;;3.00;2.80;;;20.40;58.70;;;;;;5054369;28;20037;-84
2021/08/18 01:19:10;;;;;;;2.78;2.67;;;20.30;58.80;;;;;;5052358;28;20028;-82
2021/08/18 01:21:40;;;;;;;3.13;3.00;;;20.30;58.80;;;;;;5035409;28;20021;-84
2021/08/18 01:24:09;;;;;;;2.78;2.67;;;20.30;58.80;;;;;;5051756;28;20021;-84
2021/08/18 01:26:36;;;;;;;3.00;2.90;;;20.30;58.80;;;;;;5056854;28;20418;-83
2021/08/18 01:29:02;;;;;;;2.95;2.85;;;20.30;58.80;;;;;;5039020;28;20037;-83
2021/08/18 01:31:29;;;;;;;3.10;3.00;;;20.20;58.80;;;;;;5054284;28;20048;-83
2021/08/18 01:33:57;;;;;;;3.15;2.97;;;20.30;58.90;;;;;;5055051;28;20045;-85
2021/08/18 01:36:23;;;;;;;2.85;2.75;;;20.20;58.90;;;;;;5050032;28;20040;-83
2021/08/18 01:38:49;;;;;;;3.65;3.45;;;20.20;58.90;;;;;;5055331;28;20020;-83
2021/08/18 01:41:15;;;;;;;2.97;2.88;;;20.20;58.90;;;;;;5055064;28;20029;-83
2021/08/18 01:43:42;;;;;;;2.85;2.75;;;20.20;59.00;;;;;;5054779;28;20033;-83
2021/08/18 01:46:10;;;;;;;3.00;2.90;;;20.20;59.10;;;;;;5054114;28;20044;-83
2021/08/18 01:48:36;;;;;;;2.97;2.88;;;20.20;59.10;;;;;;5052715;28;20044;-83
2021/08/18 01:51:06;;;;;;;2.80;2.60;;;20.10;59.10;;;;;;5035101;28;20371;-84
2021/08/18 01:53:34;;;;;;;2.70;2.60;;;20.10;59.10;;;;;;5070507;28;20045;-83
2021/08/18 01:56:01;;;;;;;2.53;2.42;;;20.10;59.10;;;;;;5054306;28;20055;-83
2021/08/18 01:58:28;;;;;;;3.13;2.92;;;20.10;59.20;;;;;;5035564;28;20025;-84
2021/08/18 02:00:54;;;;;;;2.90;2.80;;;20.10;59.20;;;;;;5044641;28;20030;-82
2021/08/18 02:03:21;;;;;;;2.60;2.50;;;20.10;59.20;;;;;;5043429;28;20040;-82
2021/08/18 02:05:47;;;;;;;2.50;2.40;;;20.10;59.20;;;;;;5046501;28;20028;-84
2021/08/18 02:08:13;;;;;;;3.10;2.90;;;20.10;59.30;;;;;;5036276;28;20029;-82
2021/08/18 02:10:39;;;;;;;5.72;2.92;;;20.10;59.30;;;;;;5038364;28;20025;-81
2021/08/18 02:13:05;;;;;;;2.60;2.50;;;20.10;59.30;;;;;;5036199;28;20025;-84
2021/08/18 02:15:32;;;;;;;2.53;2.42;;;20.00;59.30;;;;;;5046855;28;20371;-83
2021/08/18 02:17:59;;;;;;;2.80;2.70;;;20.00;59.40;;;;;;5035378;28;20402;-82
2021/08/18 02:20:28;;;;;;;2.50;2.40;;;20.00;59.40;;;;;;5038948;28;20029;-85
2021/08/18 02:22:54;;;;;;;2.60;2.50;;;20.00;59.50;;;;;;5038882;28;20036;-83
2021/08/18 02:25:20;;;;;;;2.50;2.40;;;19.90;59.50;;;;;;5037561;28;20021;-83
2021/08/18 02:27:47;;;;;;;2.60;2.50;;;19.90;59.50;;;;;;5037415;28;20037;-82
2021/08/18 02:30:15;;;;;;;2.90;2.70;;;19.90;59.60;;;;;;5034559;28;20024;-84
2021/08/18 02:32:41;;;;;;;2.78;2.67;;;19.80;59.60;;;;;;5038466;28;20025;-83
2021/08/18 02:35:08;;;;;;;6.55;3.10;;;19.80;59.70;;;;;;5038738;28;20037;-89
2021/08/18 02:37:35;;;;;;;2.78;2.67;;;19.80;59.70;;;;;;5055641;28;20406;-84
2021/08/18 02:40:01;;;;;;;2.67;2.58;;;19.80;59.70;;;;;;5056016;28;20029;-83
2021/08/18 02:42:27;;;;;;;3.17;3.03;;;19.80;59.70;;;;;;5037243;28;20040;-84
2021/08/18 02:44:53;;;;;;;2.72;2.63;;;19.80;59.70;;;;;;5057932;28;20036;-84
2021/08/18 02:47:19;;;;;;;3.47;3.22;;;19.80;59.80;;;;;;5056710;28;20040;-83
2021/08/18 02:49:46;;;;;;;3.10;3.00;;;19.70;59.80;;;;;;5057740;28;20033;-83
2021/08/18 02:52:12;;;;;;;2.95;2.83;;;19.70;59.80;;;;;;5057252;28;20037;-83
2021/08/18 02:54:38;;;;;;;2.97;2.88;;;19.70;59.90;;;;;;5054719;28;20489;-83
2021/08/18 02:57:04;;;;;;;2.92;2.83;;;19.70;59.80;;;;;;5053604;28;20040;-84
2021/08/18 02:59:30;;;;;;;2.90;2.80;;;19.70;59.80;;;;;;5058298;28;20052;-83
2021/08/18 03:01:56;;;;;;;3.05;2.95;;;19.70;59.80;;;;;;5040795;28;20498;-83
2021/08/18 03:04:22;;;;;;;3.22;2.92;;;19.70;59.90;;;;;;5057397;28;20040;-83
2021/08/18 03:06:48;;;;;;;3.00;2.90;;;19.70;59.90;;;;;;5055606;28;20139;-83
2021/08/18 03:09:14;;;;;;;2.72;2.63;;;19.70;59.90;;;;;;5068869;28;20048;-83
2021/08/18 03:11:41;;;;;;;3.00;2.80;;;19.70;60.00;;;;;;5059280;28;20031;-85
2021/08/18 03:14:07;;;;;;;2.45;2.35;;;19.70;60.00;;;;;;5056088;28;20037;-84
2021/08/18 03:16:33;;;;;;;2.80;2.70;;;19.70;60.00;;;;;;5055455;28;20370;-83
2021/08/18 03:18:59;;;;;;;2.70;2.60;;;19.70;60.10;;;;;;5056074;28;20043;-83
2021/08/18 03:21:25;;;;;;;3.15;2.95;;;19.60;60.00;;;;;;5053494;28;20398;-83
2021/08/18 03:23:51;;;;;;;3.03;2.92;;;19.60;60.00;;;;;;5057329;28;20028;-84
2021/08/18 03:26:17;;;;;;;2.70;2.60;;;19.70;60.10;;;;;;5057438;28;20484;-83
2021/08/18 03:28:43;;;;;;;2.63;2.53;;;19.60;60.00;;;;;;5040650;28;20052;-83
2021/08/18 03:31:09;;;;;;;2.95;2.85;;;19.70;60.10;;;;;;5055279;28;20032;-83
2021/08/18 03:33:35;;;;;;;3.20;3.00;;;19.70;60.00;;;;;;5053520;28;20053;-82
2021/08/18 03:36:01;;;;;;;2.47;2.38;;;19.70;60.00;;;;;;5054382;28;20021;-84
2021/08/18 03:38:27;;;;;;;2.55;2.45;;;19.70;60.00;;;;;;5073597;28;20049;-84
2021/08/18 03:40:54;;;;;;;2.67;2.58;;;19.70;60.00;;;;;;5056565;28;20037;-85
2021/08/18 03:43:20;;;;;;;2.95;2.85;;;19.70;60.10;;;;;;5055515;28;20032;-83
2021/08/18 03:45:47;;;;;;;2.60;2.50;;;19.70;60.10;;;;;;5055662;28;20044;-83
2021/08/18 03:48:13;;;;;;;2.65;2.55;;;19.70;60.30;;;;;;5034374;28;20025;-83
2021/08/18 03:50:39;;;;;;;2.78;2.60;;;19.60;60.20;;;;;;5057458;28;20037;-83
2021/08/18 03:53:05;;;;;;;2.55;2.45;;;19.60;60.30;;;;;;5055096;28;20033;-84
2021/08/18 03:55:31;;;;;;;2.60;2.50;;;19.50;60.40;;;;;;5055158;28;20025;-83
2021/08/18 03:57:57;;;;;;;2.63;2.53;;;19.50;60.40;;;;;;5056253;28;20032;-84
2021/08/18 04:00:23;;;;;;;4.20;2.67;;;19.50;60.50;;;;;;5052473;28;20045;-83
2021/08/18 04:02:49;;;;;;;2.80;2.60;;;19.50;60.50;;;;;;5056124;28;20048;-83
2021/08/18 04:05:15;;;;;;;3.10;2.90;;;19.40;60.50;;;;;;5056422;28;20036;-85
2021/08/18 04:07:41;;;;;;;2.40;2.30;;;19.40;60.60;;;;;;5056392;28;20485;-83
2021/08/18 04:10:08;;;;;;;2.88;2.70;;;19.40;60.70;;;;;;5056548;28;20041;-83
2021/08/18 04:12:54;;;;;;;2.78;2.67;;;19.30;60.70;;;;;;5036249;28;20017;-84
2021/08/18 04:15:21;;;;;;;3.58;3.28;;;19.30;60.80;;;;;;5017751;28;20060;-84
2021/08/18 04:17:47;;;;;;;2.40;2.30;;;19.20;60.70;;;;;;5057558;28;20083;-83
2021/08/18 04:20:14;;;;;;;2.35;2.25;;;19.20;60.90;;;;;;5054391;28;20036;-82
2021/08/18 04:22:41;;;;;;;2.55;2.45;;;19.20;60.90;;;;;;5054789;28;20029;-84
2021/08/18 04:25:15;;;;;;;2.60;2.50;;;19.20;61.00;;;;;;5056210;28;20044;-83
2021/08/18 04:27:41;;;;;;;2.80;2.70;;;19.20;61.10;;;;;;5053044;28;20029;-83
2021/08/18 04:30:08;;;;;;;2.50;2.40;;;19.10;61.00;;;;;;5052579;28;20028;-83
2021/08/18 04:32:34;;;;;;;2.40;2.30;;;19.10;61.10;;;;;;5087792;28;20029;-85
2021/08/18 04:35:01;;;;;;;4.60;2.72;;;19.10;61.20;;;;;;5055301;28;20037;-83
2021/08/18 04:37:27;;;;;;;2.45;2.35;;;19.00;61.20;;;;;;5054241;28;20036;-82
2021/08/18 04:39:53;;;;;;;2.40;2.30;;;19.00;61.20;;;;;;5053880;28;20417;-83
2021/08/18 04:42:19;;;;;;;2.60;2.50;;;19.00;61.10;;;;;;5050161;28;20383;-84
2021/08/18 04:44:45;;;;;;;2.65;2.45;;;19.00;61.10;;;;;;5057362;28;20033;-84
2021/08/18 04:47:11;;;;;;;2.60;2.50;;;19.10;61.10;;;;;;5037173;28;20398;-83
2021/08/18 04:49:37;;;;;;;2.97;2.80;;;19.00;61.00;;;;;;5055231;28;20032;-83
2021/08/18 04:52:04;;;;;;;2.50;2.40;;;19.10;61.10;;;;;;5054149;28;20518;-84
2021/08/18 04:54:30;;;;;;;2.88;2.78;;;19.00;61.10;;;;;;5052503;28;20044;-83
2021/08/18 04:56:56;;;;;;;2.40;2.30;;;19.00;61.10;;;;;;5053627;28;20025;-83
2021/08/18 04:59:22;;;;;;;2.95;2.78;;;19.10;61.20;;;;;;5088602;28;20053;-84
2021/08/18 05:01:48;;;;;;;2.40;2.30;;;19.00;61.10;;;;;;5054623;28;20048;-83
2021/08/18 05:04:14;;;;;;;2.50;2.40;;;19.00;61.10;;;;;;5054914;28;20021;-85
2021/08/18 05:06:40;;;;;;;2.65;2.53;;;19.00;61.10;;;;;;5052281;28;20385;-84
2021/08/18 05:09:06;;;;;;;2.60;2.50;;;19.00;61.10;;;;;;5051506;28;20037;-83
2021/08/18 05:11:32;;;;;;;2.40;2.30;;;19.00;61.20;;;;;;5055372;28;20499;-85
2021/08/18 05:13:58;;;;;;;2.42;2.33;;;19.00;61.10;;;;;;5055014;28;20033;-83
2021/08/18 05:16:24;;;;;;;2.53;2.42;;;19.00;61.10;;;;;;5054573;28;20036;-84
2021/08/18 05:18:50;;;;;;;2.45;2.35;;;19.00;61.10;;;;;;5054618;28;20036;-83
2021/08/18 05:21:16;;;;;;;2.58;2.47;;;19.00;61.10;;;;;;5034553;28;20390;-83
2021/08/18 05:23:42;;;;;;;2.70;2.60;;;19.00;61.10;;;;;;5056819;28;20040;-83
2021/08/18 05:26:09;;;;;;;2.55;2.45;;;19.00;61.20;;;;;;5055019;28;20409;-83
2021/08/18 05:28:35;;;;;;;2.70;2.60;;;19.00;61.20;;;;;;5038246;28;20409;-83
2021/08/18 05:31:01;;;;;;;2.60;2.40;;;19.00;61.20;;;;;;5054495;28;20493;-83
2021/08/18 05:33:27;;;;;;;2.20;2.10;;;19.00;61.20;;;;;;5049859;28;20044;-83
2021/08/18 05:35:54;;;;;;;2.38;2.28;;;19.00;61.20;;;;;;5037312;28;20029;-84
2021/08/18 05:38:20;;;;;;;2.40;2.30;;;19.00;61.30;;;;;;5055537;28;20052;-83
2021/08/18 05:40:46;;;;;;;2.55;2.35;;;19.00;61.30;;;;;;5054704;28;20394;-83
2021/08/18 05:43:13;;;;;;;2.30;2.20;;;19.00;61.30;;;;;;5053619;28;20021;-83
2021/08/18 05:45:39;;;;;;;2.38;2.28;;;18.90;61.30;;;;;;5051125;28;20051;-83
2021/08/18 05:48:05;;;;;;;2.38;2.28;;;18.90;61.40;;;;;;5051991;28;20024;-83
2021/08/18 05:50:31;;;;;;;2.22;2.13;;;19.00;61.50;;;;;;5089289;28;20032;-84
2021/08/18 05:52:57;;;;;;;2.60;2.50;;;18.90;61.40;;;;;;5058671;28;20056;-83
2021/08/18 05:55:23;;;;;;;2.47;2.38;;;18.90;61.30;;;;;;5057283;28;20025;-83
2021/08/18 05:57:51;;;;;;;2.70;2.50;;;18.90;61.30;;;;;;5058416;28;20047;-84
2021/08/18 06:00:17;;;;;;;2.45;2.35;;;18.90;61.40;;;;;;5038019;28;20036;-83
2021/08/18 06:02:43;;;;;;;2.50;2.40;;;18.90;61.40;;;;;;5058999;28;20028;-84
2021/08/18 06:05:10;;;;;;;2.70;2.60;;;18.90;61.40;;;;;;5058459;28;20033;-83
2021/08/18 06:07:36;;;;;;;8.68;2.72;;;18.90;61.40;;;;;;5058529;28;20029;-83
2021/08/18 06:10:03;;;;;;;2.40;2.30;;;18.90;61.40;;;;;;5058408;28;20080;-83
2021/08/18 06:12:29;;;;;;;2.08;1.98;;;18.80;61.40;;;;;;5055385;28;20039;-82
2021/08/18 06:14:55;;;;;;;2.40;2.20;;;18.80;61.40;;;;;;5058236;28;20032;-84
2021/08/18 06:17:21;;;;;;;2.20;2.10;;;18.90;61.50;;;;;;5058197;28;20508;-83
2021/08/18 06:19:47;;;;;;;2.35;2.25;;;18.80;61.40;;;;;;5057191;28;20040;-84
2021/08/18 06:22:13;;;;;;;2.40;2.30;;;18.80;61.50;;;;;;5058358;28;20036;-83
2021/08/18 06:24:43;;;;;;;2.50;2.40;;;18.80;61.50;;;;;;5056931;28;20405;-83
2021/08/18 06:27:11;;;;;;;2.22;2.13;;;18.80;61.60;;;;;;5054824;28;20036;-82
2021/08/18 06:29:37;;;;;;;2.40;2.30;;;18.70;61.50;;;;;;5074108;28;20024;-79
2021/08/18 06:32:04;;;;;;;2.42;2.33;;;18.70;61.50;;;;;;5056347;28;20033;-84
2021/08/18 06:34:30;;;;;;;2.50;2.40;;;18.70;61.60;;;;;;5055890;28;20394;-82
2021/08/18 06:37:01;;;;;;;3.58;3.38;;;18.70;61.60;;;;;;5058110;28;20035;-83
2021/08/18 06:39:30;;;;;;;;;;;18.70;61.60;;;;;;5055043;28;20048;-85
2021/08/18 06:41:56;;;;;;;2.20;2.10;;;18.70;61.50;;;;;;5056086;28;20276;-82
2021/08/18 06:44:23;;;;;;;2.25;2.15;;;18.70;61.40;;;;;;5074199;28;20029;-83
2021/08/18 06:46:49;;;;;;;2.50;2.40;;;18.80;61.50;;;;;;5055937;28;20048;-83
2021/08/18 06:49:15;;;;;;;3.33;2.42;;;18.80;61.40;;;;;;5056539;28;20394;-84
2021/08/18 06:51:41;;;;;;;2.70;2.60;;;18.80;61.40;;;;;;5056371;28;20032;-83
2021/08/18 06:54:07;;;;;;;2.30;2.20;;;18.80;61.40;;;;;;5053373;28;20044;-83
2021/08/18 06:56:33;;;;;;;2.60;2.50;;;18.80;61.40;;;;;;5058512;28;20040;-83
2021/08/18 06:58:59;;;;;;;2.45;2.35;;;18.80;61.40;;;;;;5057084;28;20045;-83
2021/08/18 07:01:25;;;;;;;2.30;2.20;;;18.80;61.40;;;;;;5056177;28;20036;-84
2021/08/18 07:03:51;;;;;;;4.07;2.80;;;18.80;61.50;;;;;;5056109;28;20037;-84
2021/08/18 07:06:18;;;;;;;2.40;2.30;;;18.80;61.50;;;;;;5052056;28;20382;-83
2021/08/18 07:08:44;;;;;;;2.67;2.58;;;18.80;61.50;;;;;;5059231;28;20033;-83
2021/08/18 07:11:10;;;;;;;2.63;2.53;;;18.80;61.40;;;;;;5057428;28;20458;-83
2021/08/18 07:13:36;;;;;;;2.80;2.70;;;18.80;61.50;;;;;;5056910;28;20040;-83
2021/08/18 07:16:03;;;;;;;3.08;2.90;;;18.80;61.50;;;;;;5039062;28;20043;-83
2021/08/18 07:18:29;;;;;;;2.53;2.42;;;18.80;61.50;;;;;;5052512;28;20056;-82
2021/08/18 07:20:55;;;;;;;2.50;2.40;;;18.80;61.60;;;;;;5056055;28;20048;-82
2021/08/18 07:23:21;;;;;;;2.88;2.70;;;18.80;61.60;;;;;;5058397;28;20052;-83
2021/08/18 07:25:47;;;;;;;2.63;2.47;;;18.80;61.50;;;;;;5057176;28;20028;-84
2021/08/18 07:28:13;;;;;;;2.50;2.40;;;18.80;61.50;;;;;;5055535;28;20418;-83
2021/08/18 07:30:39;;;;;;;2.45;2.35;;;18.80;61.50;;;;;;5054893;28;20036;-83
2021/08/18 07:33:05;;;;;;;2.70;2.60;;;18.80;61.40;;;;;;5054293;28;20409;-83
2021/08/18 07:35:31;;;;;;;2.75;2.65;;;18.80;61.40;;;;;;5059023;28;20509;-83
2021/08/18 07:37:57;;;;;;;2.63;2.42;;;18.80;61.40;;;;;;5055581;28;20048;-83
2021/08/18 07:40:25;;;;;;;2.40;2.30;;;18.80;61.50;;;;;;5055909;28;20040;-83
2021/08/18 07:42:52;;;;;;;2.50;2.40;;;18.80;61.40;;;;;;5054237;28;20358;-83
2021/08/18 07:45:19;;;;;;;2.47;2.38;;;18.90;62.20;;;;;;5033918;28;20379;-83
2021/08/18 07:47:45;;;;;;;2.60;2.50;;;18.90;61.40;;;;;;5090838;28;20033;-83
2021/08/18 07:50:12;;;;;;;2.70;2.60;;;19.00;61.40;;;;;;5055091;28;20045;-83
2021/08/18 07:52:38;;;;;;;3.00;2.80;;;19.10;61.30;;;;;;5056825;28;20048;-83
2021/08/18 07:55:07;;;;;;;2.80;2.70;;;19.10;61.20;;;;;;5056627;28;20032;-84
2021/08/18 07:57:34;;;;;;;2.83;2.72;;;19.10;61.10;;;;;;5052464;28;20032;-84
2021/08/18 08:00:03;;;;;;;2.67;2.58;;;19.20;61.10;;;;;;5037121;28;20029;-84
2021/08/18 08:02:29;;;;;;;2.97;2.88;;;19.20;61.10;;;;;;5057499;28;20037;-85
2021/08/18 08:04:55;;;;;;;2.83;2.72;;;19.20;61.10;;;;;;5056139;28;20048;-83
2021/08/18 08:07:21;;;;;;;2.97;2.88;;;19.10;61.10;;;;;;5054343;28;20033;-81
2021/08/18 08:09:47;;;;;;;2.78;2.67;;;19.20;61.20;;;;;;5055832;28;20393;-83
2021/08/18 08:12:13;;;;;;;2.78;2.67;;;19.20;61.20;;;;;;5052671;28;20021;-83
2021/08/18 08:14:39;;;;;;;2.80;2.70;;;19.20;61.20;;;;;;5039359;28;20493;-83
2021/08/18 08:17:05;;;;;;;3.05;2.85;;;19.20;61.20;;;;;;5054467;28;20044;-82
2021/08/18 08:19:31;;;;;;;2.90;2.80;;;19.20;61.20;;;;;;5055981;28;20033;-83
2021/08/18 08:21:57;;;;;;;2.45;2.35;;;19.20;61.20;;;;;;5054451;28;20036;-83
2021/08/18 08:24:23;;;;;;;2.42;2.33;;;19.20;61.10;;;;;;5049823;28;20029;-83
2021/08/18 08:26:49;;;;;;;2.70;2.60;;;19.20;61.20;;;;;;5056663;28;20444;-85
2021/08/18 08:29:16;;;;;;;2.65;2.55;;;19.20;61.10;;;;;;5056518;28;20036;-83
2021/08/18 08:31:43;;;;;;;2.78;2.67;;;19.20;61.10;;;;;;5038964;28;20033;-83
2021/08/18 08:34:10;;;;;;;2.60;2.50;;;19.20;61.10;;;;;;5055517;28;20048;-84
2021/08/18 08:36:36;;;;;;;4.15;2.45;;;19.20;61.20;;;;;;5052463;28;20025;-84
2021/08/18 08:39:02;;;;;;;3.10;2.90;;;19.20;61.10;;;;;;5053592;28;20033;-83
2021/08/18 08:41:29;;;;;;;3.72;2.97;;;19.10;61.10;;;;;;5089375;28;20028;-83
2021/08/18 08:43:55;;;;;;;2.70;2.60;;;19.20;61.20;;;;;;5038938;28;20501;-85
2021/08/18 08:46:21;;;;;;;2.65;2.53;;;19.20;61.10;;;;;;5053892;28;20033;-83
2021/08/18 08:48:47;;;;;;;2.72;2.63;;;19.20;61.20;;;;;;5053697;28;20032;-86
2021/08/18 08:51:13;;;;;;;2.75;2.65;;;19.20;61.10;;;;;;5050345;28;20021;-81
2021/08/18 08:53:39;;;;;;;2.67;2.58;;;19.20;61.00;;;;;;5056167;28;20029;-85
2021/08/18 08:56:09;;;;;;;3.03;2.88;;;19.30;61.00;;;;;;5055079;28;20482;-83
2021/08/18 08:58:35;;;;;;;2.80;2.70;;;19.30;60.90;;;;;;5037617;28;20037;-84
2021/08/18 09:01:01;;;;;;;2.97;2.78;;;19.30;60.90;;;;;;5051731;28;20032;-83
2021/08/18 09:03:27;;;;;;;2.80;2.70;;;19.30;60.90;;;;;;5050403;28;20026;-83
2021/08/18 09:05:57;;;;;;;2.80;2.70;;;19.30;61.00;;;;;;5055598;28;20044;-83
2021/08/18 09:08:24;;;;;;;2.80;2.70;;;19.30;61.10;;;;;;5056416;28;20355;-83
2021/08/18 09:11:12;;;;;;;2.67;2.58;;;19.30;61.10;;;;;;5054806;28;20041;-83
2021/08/18 09:13:46;;;;;;;3.03;2.83;;;19.20;61.10;;;;;;5053864;28;20037;-84
2021/08/18 09:16:13;;;;;;;3.35;3.13;;;19.30;61.10;;;;;;5038568;28;20044;-87
2021/08/18 09:18:40;;;;;;;3.05;2.85;;;19.30;61.00;;;;;;5053287;28;20033;-83
2021/08/18 09:21:51;;;;;;;2.67;2.58;;;19.30;61.00;;;;;;5050755;28;20021;-84
2021/08/18 09:24:27;;;;;;;2.90;2.80;;;19.40;61.00;;;;;;5049927;28;20475;-86
2021/08/18 09:26:54;;;;;;;2.50;2.40;;;19.40;60.70;;;;;;5063700;28;20024;-83
2021/08/18 09:29:29;;;;;;;2.97;2.88;;;19.50;60.70;;;;;;5055751;28;20036;-83
2021/08/18 09:31:55;;;;;;;2.80;2.70;;;19.50;60.50;;;;;;5053319;28;20041;-85
2021/08/18 09:34:21;;;;;;;2.95;2.85;;;19.60;60.60;;;;;;5054915;28;20045;-84
2021/08/18 09:36:48;;;;;;;2.67;2.58;;;19.60;60.50;;;;;;5054553;28;20064;-83
2021/08/18 09:39:21;;;;;;;3.10;3.00;;;19.60;60.50;;;;;;5048246;28;20033;-84
2021/08/18 09:41:47;;;;;;;2.50;2.40;;;19.60;60.50;;;;;;5096806;28;20043;-84
2021/08/18 09:44:13;;;;;;;2.88;2.70;;;19.60;60.50;;;;;;5038435;28;20045;-85
2021/08/18 09:46:40;;;;;;;2.72;2.63;;;19.60;60.40;;;;;;5053153;28;20032;-84
2021/08/18 09:49:12;;;;;;;2.80;2.70;;;19.70;60.30;;;;;;5054668;28;20051;-84
2021/08/18 09:51:39;;;;;;;2.67;2.58;;;19.80;60.30;;;;;;5052799;28;20029;-83
2021/08/18 09:54:12;;;;;;;3.10;2.88;;;19.80;60.20;;;;;;5033799;28;20029;-84
2021/08/18 09:56:47;;;;;;;2.70;2.60;;;19.80;60.30;;;;;;5055405;28;20040;-83
2021/08/18 09:59:14;;;;;;;2.90;2.80;;;19.80;60.20;;;;;;5037450;28;20029;-83
2021/08/18 10:01:40;;;;;;;2.90;2.80;;;19.80;60.30;;;;;;5054022;28;20033;-83
2021/08/18 10:04:06;;;;;;;2.72;2.63;;;19.80;60.30;;;;;;5054678;28;20401;-84
2021/08/18 10:06:32;;;;;;;2.90;2.80;;;19.90;60.20;;;;;;5050821;28;20036;-84
2021/08/18 10:08:58;;;;;;;2.90;2.80;;;20.00;60.10;;;;;;5053234;28;20045;-85
2021/08/18 10:11:26;;;;;;;2.63;2.50;;;20.00;60.00;;;;;;5071426;28;20029;-83
2021/08/18 10:13:52;;;;;;;2.83;2.72;;;20.00;60.00;;;;;;5053221;28;20048;-83
2021/08/18 10:16:19;;;;;;;3.13;3.03;;;20.20;60.00;;;;;;5053998;28;20389;-84
2021/08/18 10:18:46;;;;;;;3.00;2.90;;;20.20;59.80;;;;;;5051966;28;20044;-83
2021/08/18 10:21:19;;;;;;;3.15;3.05;;;20.30;59.70;;;;;;5049306;28;20044;-84
2021/08/18 10:24:09;;;;;;;3.30;3.20;;;20.40;59.60;;;;;;5077919;28;20043;-82
2021/08/18 10:26:38;;;;;;;3.47;3.35;;;20.50;59.40;;;;;;5053843;28;20037;-83
2021/08/18 10:29:19;;;;;;;4.00;3.80;;;20.60;59.30;;;;;;5054362;28;20036;-84
2021/08/18 10:31:46;;;;;;;3.95;3.75;;;20.70;59.40;;;;;;5052765;28;20040;-83
2021/08/18 10:34:36;;;;;;;3.60;3.40;;;20.60;59.40;;;;;;5054315;28;20063;-84
2021/08/18 10:37:06;;;;;;;3.67;3.47;;;20.50;59.50;;;;;;5055093;28;20032;-84
2021/08/18 10:39:39;;;;;;;3.20;3.10;;;20.50;59.50;;;;;;5053898;28;20041;-85
2021/08/18 10:42:16;;;;;;;3.97;3.78;;;20.50;59.50;;;;;;5071425;28;20037;-84
2021/08/18 10:44:48;;;;;;;3.40;3.30;;;20.50;59.60;;;;;;5059771;28;20040;-83
2021/08/18 10:47:27;;;;;;;3.38;3.28;;;20.60;59.60;;;;;;5056127;28;20029;-83
2021/08/18 10:49:57;;;;;;;3.40;3.30;;;20.60;59.50;;;;;;5056781;28;20033;-84
2021/08/18 10:52:29;;;;;;;4.38;4.18;;;20.60;59.40;;;;;;5056344;28;20032;-83
2021/08/18 10:55:09;;;;;;;4.47;4.28;;;20.70;59.40;;;;;;5057621;28;20036;-82
2021/08/18 10:57:53;;;;;;;3.92;3.72;;;20.70;59.30;;;;;;5037035;28;20037;-84
2021/08/18 11:00:22;;;;;;;3.17;2.97;;;20.70;59.30;;;;;;5035888;28;20040;-84
2021/08/18 11:02:53;;;;;;;3.30;3.20;;;20.70;59.30;;;;;;5067153;28;20426;-84
2021/08/18 11:05:24;;;;;;;4.45;3.70;;;20.70;59.30;;;;;;5055208;28;20493;-83
2021/08/18 11:08:23;;;;;;;4.57;4.38;;;20.70;59.30;;;;;;5056361;28;20060;-82
2021/08/18 11:10:55;;;;;;;3.42;3.22;;;20.80;59.30;;;;;;5057578;28;20048;-83
2021/08/18 11:13:37;;;;;;;4.30;4.10;;;20.80;59.30;;;;;;5057255;28;20048;-83
2021/08/18 11:16:11;;;;;;;4.53;4.22;;;20.80;59.30;;;;;;5056781;28;20041;-84
2021/08/18 11:18:43;;;;;;;3.95;3.75;;;20.80;59.30;;;;;;5037872;28;20033;-84
2021/08/18 11:21:17;;;;;;;4.38;4.18;;;20.80;59.40;;;;;;5053441;28;20043;-83
2021/08/18 11:23:48;;;;;;;3.83;3.63;;;20.80;59.30;;;;;;5057893;28;20021;-83
2021/08/18 11:26:20;;;;;;;4.07;3.88;;;20.80;59.30;;;;;;5040970;28;20394;-83
2021/08/18 11:28:52;;;;;;;4.28;4.07;;;20.90;59.30;;;;;;5056934;28;20041;-84
2021/08/18 11:31:18;;;;;;;4.70;4.50;;;20.90;59.10;;;;;;5055211;28;20055;-83
2021/08/18 11:33:44;;;;;;;4.78;4.57;;;21.00;59.10;;;;;;5054605;28;20049;-83
2021/08/18 11:36:15;;;;;;;3.15;3.05;;;21.00;59.10;;;;;;5053029;28;20406;-83
2021/08/18 11:38:41;;;;;;;4.38;4.18;;;21.00;58.90;;;;;;5090249;28;20446;-84
2021/08/18 11:41:07;;;;;;;5.25;5.05;;;21.10;58.90;;;;;;5055177;28;20041;-83
2021/08/18 11:43:43;;;;;;;4.88;4.68;;;21.10;58.90;;;;;;5055488;28;20048;-83
2021/08/18 11:46:09;;;;;;;3.38;3.28;;;21.20;58.80;;;;;;5056120;28;20401;-84
2021/08/18 11:48:37;;;;;;;3.85;3.65;;;21.30;58.70;;;;;;5054243;28;20291;-84
2021/08/18 11:51:06;;;;;;;3.70;3.50;;;21.40;58.60;;;;;;5054492;28;20029;-84
2021/08/18 11:53:32;;;;;;;3.47;3.30;;;21.50;58.40;;;;;;5071882;28;20025;-84
2021/08/18 11:56:03;;;;;;;3.65;3.45;;;21.60;58.30;;;;;;5055193;28;20397;-84
2021/08/18 11:58:32;;;;;;;;;;;21.70;58.20;;;;;;5040448;28;20044;-84
2021/08/18 12:00:59;;;;;;;3.63;3.45;;;21.70;58.10;;;;;;5054972;28;19939;-83
2021/08/18 12:03:25;;;;;;;3.97;3.78;;;21.80;58.00;;;;;;5051100;28;20029;-84
2021/08/18 12:06:05;;;;;;;3.85;3.65;;;21.80;58.00;;;;;;5039371;28;20028;-84
2021/08/18 12:08:41;;;;;;;3.15;3.05;;;21.80;58.10;;;;;;5055238;28;20028;-83
2021/08/18 12:11:08;;;;;;;3.45;3.25;;;21.80;58.10;;;;;;5056514;28;20040;-84
2021/08/18 12:13:47;;;;;;;3.67;3.47;;;21.80;58.10;;;;;;5056217;28;20033;-83
2021/08/18 12:16:43;;;;;;;3.70;3.50;;;21.80;58.10;;;;;;5054372;28;20036;-84
2021/08/18 12:19:17;;;;;;;3.63;3.42;;;21.80;58.10;;;;;;5040486;28;20436;-84
2021/08/18 12:21:44;;;;;;;4.28;4.07;;;21.80;58.10;;;;;;5053895;28;20028;-83
2021/08/18 12:24:12;;;;;;;3.85;3.65;;;21.80;58.10;;;;;;5051305;28;20036;-84
2021/08/18 12:26:47;;;;;;;3.25;3.15;;;21.80;58.00;;;;;;5058136;28;20044;-84
2021/08/18 12:29:20;;;;;;;4.30;4.10;;;21.80;58.00;;;;;;5054759;28;20044;-84
2021/08/18 12:32:01;;;;;;;3.63;3.42;;;21.80;58.00;;;;;;5055361;28;20437;-84
2021/08/18 12:34:30;;;;;;;3.92;3.72;;;21.80;58.00;;;;;;5053367;28;20052;-83
2021/08/18 12:37:05;;;;;;;4.53;4.32;;;21.90;58.00;;;;;;5055679;28;20047;-84
2021/08/18 12:39:41;;;;;;;4.78;4.57;;;21.90;57.90;;;;;;5051711;28;20493;-84
2021/08/18 12:42:08;;;;;;;5.47;5.00;;;22.00;57.80;;;;;;5052720;28;20394;-84
2021/08/18 12:44:38;;;;;;;4.70;4.50;;;22.00;57.70;;;;;;5056365;28;20025;-83
2021/08/18 12:47:09;;;;;;;4.15;3.95;;;22.10;57.70;;;;;;5037366;28;20033;-84
2021/08/18 12:49:36;;;;;;;4.95;4.75;;;22.10;57.60;;;;;;5054373;28;20032;-84
2021/08/18 12:52:06;;;;;;;4.70;4.50;;;22.00;57.60;;;;;;5037685;28;20028;-84